createdAt,value
2023-02-06T00:01:09.443Z,7.77
2023-02-06T00:03:43.632Z,8.00
2023-02-06T00:06:17.363Z,7.60
2023-02-06T00:08:49.443Z,8.57
2023-02-06T00:11:22.873Z,7.90
2023-02-06T00:13:55.067Z,8.33
2023-02-06T00:16:31.622Z,7.63
2023-02-06T00:19:03.123Z,9.00
2023-02-06T00:21:35.262Z,9.00
2023-02-06T00:24:16.185Z,9.33
2023-02-06T00:26:48.256Z,8.17
2023-02-06T00:29:20.493Z,8.43
2023-02-06T00:31:52.987Z,8.40
2023-02-06T00:34:26.305Z,8.23
2023-02-06T00:36:56.811Z,9.03
2023-02-06T00:39:28.881Z,9.43
2023-02-06T00:41:59.412Z,8.87
2023-02-06T00:44:34.207Z,9.10
2023-02-06T00:47:04.951Z,8.50
2023-02-06T00:49:35.569Z,8.20
2023-02-06T00:52:09.666Z,8.73
2023-02-06T00:54:43.829Z,9.30
2023-02-06T00:57:15.948Z,8.93
2023-02-06T00:59:46.527Z,9.30
2023-02-06T01:02:16.901Z,8.73
2023-02-06T01:04:48.908Z,9.37
2023-02-06T01:07:21.271Z,9.50
2023-02-06T01:09:52.185Z,9.00
2023-02-06T01:12:25.178Z,9.30
2023-02-06T01:14:57.970Z,9.70
2023-02-06T01:17:28.930Z,9.23
2023-02-06T01:20:00.227Z,10.17
2023-02-06T01:22:30.853Z,11.30
2023-02-06T01:25:03.725Z,11.53
2023-02-06T01:27:40.212Z,10.40
2023-02-06T01:30:11.827Z,10.73
2023-02-06T01:32:44.013Z,10.03
2023-02-06T01:35:14.571Z,10.50
2023-02-06T01:37:46.748Z,10.47
2023-02-06T01:40:17.932Z,10.00
2023-02-06T01:42:48.320Z,11.40
2023-02-06T01:45:37.382Z,10.77
2023-02-06T01:48:11.061Z,9.67
2023-02-06T01:50:45.775Z,9.53
2023-02-06T01:53:20.732Z,9.50
2023-02-06T01:55:54.175Z,9.80
2023-02-06T01:58:31.736Z,9.33
2023-02-06T02:01:03.503Z,9.80
2023-02-06T02:03:37.266Z,9.27
2023-02-06T02:06:12.104Z,10.03
2023-02-06T02:08:45.837Z,9.03
2023-02-06T02:11:22.293Z,10.17
2023-02-06T02:13:54.405Z,8.83
2023-02-06T02:16:27.954Z,8.67
2023-02-06T02:19:34.564Z,9.17
2023-02-06T02:22:26.297Z,9.80
2023-02-06T02:25:02.521Z,9.43
2023-02-06T02:27:58.777Z,9.07
2023-02-06T02:31:07.909Z,9.00
2023-02-06T02:34:04.350Z,9.17
2023-02-06T02:36:47.872Z,9.80
2023-02-06T02:39:27.449Z,9.13
2023-02-06T02:42:07.054Z,9.07
2023-02-06T02:45:09.688Z,9.30
2023-02-06T02:47:50.098Z,9.13
2023-02-06T02:50:22.238Z,8.80
2023-02-06T02:52:53.848Z,9.17
2023-02-06T02:55:27.974Z,8.87
2023-02-06T02:58:03.091Z,8.50
2023-02-06T03:00:37.215Z,9.40
2023-02-06T03:03:12.521Z,9.60
2023-02-06T03:05:56.276Z,7.70
2023-02-06T03:08:32.433Z,8.43
2023-02-06T03:11:14.984Z,7.57
2023-02-06T03:14:00.553Z,7.60
2023-02-06T03:16:43.186Z,6.57
2023-02-06T03:19:20.009Z,7.27
2023-02-06T03:21:52.677Z,7.20
2023-02-06T03:24:29.024Z,6.90
2023-02-06T03:27:02.455Z,6.87
2023-02-06T03:29:36.870Z,6.87
2023-02-06T03:32:18.707Z,7.47
2023-02-06T03:35:00.479Z,6.93
2023-02-06T03:37:34.330Z,6.80
2023-02-06T03:40:08.004Z,6.73
2023-02-06T03:42:41.489Z,6.33
2023-02-06T03:45:18.042Z,7.00
2023-02-06T03:47:52.285Z,7.20
2023-02-06T03:50:26.279Z,6.20
2023-02-06T03:52:59.299Z,6.40
2023-02-06T03:55:29.940Z,5.70
2023-02-06T03:58:09.849Z,6.87
2023-02-06T04:00:44.671Z,6.60
2023-02-06T04:03:16.279Z,6.10
2023-02-06T04:05:46.939Z,6.40
2023-02-06T04:08:18.519Z,6.93
2023-02-06T04:10:50.004Z,6.67
2023-02-06T04:13:20.538Z,6.80
2023-02-06T04:15:52.582Z,6.20
2023-02-06T04:18:29.454Z,6.63
2023-02-06T04:21:05.330Z,6.07
2023-02-06T04:23:36.962Z,6.60
2023-02-06T04:26:07.450Z,6.60
2023-02-06T04:28:38.241Z,6.80
2023-02-06T04:31:08.745Z,7.23
2023-02-06T04:33:39.432Z,6.63
2023-02-06T04:36:10.205Z,6.50
2023-02-06T04:38:40.639Z,6.23
2023-02-06T04:41:11.479Z,5.37
2023-02-06T04:43:42.077Z,5.40
2023-02-06T04:46:12.561Z,5.43
2023-02-06T04:48:43.167Z,6.27
2023-02-06T04:51:13.536Z,5.53
2023-02-06T04:53:44.428Z,5.90
2023-02-06T04:56:15.203Z,6.17
2023-02-06T04:58:45.898Z,6.87
2023-02-06T05:01:17.203Z,6.43
2023-02-06T05:03:48.524Z,6.50
2023-02-06T05:06:19.092Z,7.17
2023-02-06T05:08:49.764Z,6.87
2023-02-06T05:11:20.124Z,7.13
2023-02-06T05:13:50.630Z,8.17
2023-02-06T05:16:21.274Z,7.63
2023-02-06T05:18:54.574Z,7.47
2023-02-06T05:21:26.058Z,8.47
2023-02-06T05:23:56.484Z,8.17
2023-02-06T05:26:27.116Z,9.23
2023-02-06T05:28:59.864Z,8.40
2023-02-06T05:31:30.725Z,8.13
2023-02-06T05:34:01.550Z,8.07
2023-02-06T05:36:31.941Z,8.10
2023-02-06T05:39:04.786Z,8.23
2023-02-06T05:41:35.269Z,8.70
2023-02-06T05:44:06.145Z,8.97
2023-02-06T05:46:36.746Z,8.60
2023-02-06T05:49:08.779Z,8.80
2023-02-06T05:51:39.368Z,9.17
2023-02-06T05:54:10.013Z,8.83
2023-02-06T05:56:40.581Z,8.53
2023-02-06T05:59:10.938Z,8.77
2023-02-06T06:01:41.940Z,8.50
2023-02-06T06:04:12.613Z,8.77
2023-02-06T06:06:44.272Z,9.37
2023-02-06T06:09:14.966Z,9.30
2023-02-06T06:11:48.708Z,9.63
2023-02-06T06:14:19.815Z,9.60
2023-02-06T06:16:51.416Z,9.70
2023-02-06T06:19:22.207Z,9.67
2023-02-06T06:21:55.592Z,10.37
2023-02-06T06:24:26.959Z,10.40
2023-02-06T06:26:59.062Z,10.87
2023-02-06T06:29:30.196Z,10.43
2023-02-06T06:32:00.634Z,10.83
2023-02-06T06:34:31.093Z,10.90
2023-02-06T06:37:03.437Z,10.93
2023-02-06T06:39:33.867Z,10.60
2023-02-06T06:42:04.533Z,11.10
2023-02-06T06:44:35.274Z,11.63
2023-02-06T06:47:05.836Z,11.63
2023-02-06T06:49:36.477Z,10.67
2023-02-06T06:52:19.511Z,11.73
2023-02-06T06:54:41.676Z,12.10
2023-02-06T06:57:13.299Z,11.97
2023-02-06T06:59:43.904Z,10.77
2023-02-06T07:02:14.508Z,11.77
2023-02-06T07:04:45.088Z,12.20
2023-02-06T07:07:15.949Z,12.90
2023-02-06T07:09:46.462Z,13.20
2023-02-06T07:12:17.580Z,12.80
2023-02-06T07:14:48.174Z,13.20
2023-02-06T07:17:19.012Z,13.07
2023-02-06T07:19:51.081Z,13.23
2023-02-06T07:22:21.722Z,14.20
2023-02-06T07:24:54.388Z,14.23
2023-02-06T07:27:24.537Z,14.20
2023-02-06T07:29:54.950Z,13.83
2023-02-06T07:32:27.573Z,13.63
2023-02-06T07:34:59.869Z,15.40
2023-02-06T07:37:30.302Z,14.63
2023-02-06T07:40:00.836Z,15.70
2023-02-06T07:42:32.815Z,17.70
2023-02-06T07:45:03.629Z,13.73
2023-02-06T07:47:34.837Z,14.03
2023-02-06T07:50:05.789Z,13.70
2023-02-06T07:52:36.379Z,13.33
2023-02-06T07:55:07.212Z,15.17
2023-02-06T07:57:38.379Z,13.53
2023-02-06T08:00:11.325Z,14.57
2023-02-06T08:02:42.149Z,14.30
2023-02-06T08:05:12.939Z,12.97
2023-02-06T08:07:44.447Z,13.60
2023-02-06T08:10:14.976Z,13.00
2023-02-06T08:12:52.701Z,13.27
2023-02-06T08:15:24.999Z,13.20
2023-02-06T08:17:57.034Z,13.57
2023-02-06T08:20:27.643Z,12.30
2023-02-06T08:23:00.173Z,11.67
2023-02-06T08:25:30.661Z,12.17
2023-02-06T08:28:01.132Z,12.23
2023-02-06T08:30:34.944Z,11.93
2023-02-06T08:33:05.519Z,12.23
2023-02-06T08:35:36.368Z,13.33
2023-02-06T08:38:08.477Z,12.60
2023-02-06T08:40:38.969Z,13.03
2023-02-06T08:43:11.387Z,13.43
2023-02-06T08:45:41.845Z,12.73
2023-02-06T08:48:12.314Z,12.23
2023-02-06T08:50:44.517Z,12.77
2023-02-06T08:53:15.017Z,13.63
2023-02-06T08:55:45.484Z,12.67
2023-02-06T08:58:18.901Z,13.33
2023-02-06T09:00:49.337Z,13.27
2023-02-06T09:03:21.654Z,14.37
2023-02-06T09:05:57.582Z,13.47
2023-02-06T09:08:30.940Z,14.63
2023-02-06T09:11:16.393Z,14.00
2023-02-06T09:13:50.312Z,13.93
2023-02-06T09:16:21.618Z,14.47
2023-02-06T09:18:54.179Z,14.50
2023-02-06T09:21:26.980Z,14.30
2023-02-06T09:24:04.083Z,15.27
2023-02-06T09:26:58.183Z,15.47
2023-02-06T09:29:14.925Z,15.10
2023-02-06T09:31:47.325Z,15.30
2023-02-06T09:34:19.365Z,15.20
2023-02-06T09:36:52.790Z,15.90
2023-02-06T09:39:25.147Z,16.27
2023-02-06T09:42:10.560Z,14.93
2023-02-06T09:44:55.771Z,16.33
2023-02-06T09:47:30.388Z,15.43
2023-02-06T09:50:09.749Z,15.77
2023-02-06T09:52:58.036Z,15.77
2023-02-06T09:55:45.916Z,14.87
2023-02-06T09:58:39.921Z,16.83
2023-02-06T10:01:19.548Z,15.23
2023-02-06T10:04:06.780Z,14.73
2023-02-06T10:06:49.309Z,14.70
2023-02-06T10:09:25.086Z,14.27
2023-02-06T10:12:04.812Z,14.77
2023-02-06T10:14:44.631Z,14.70
2023-02-06T10:17:18.140Z,15.10
2023-02-06T10:20:00.943Z,15.17
2023-02-06T10:22:40.278Z,14.17
2023-02-06T10:25:19.521Z,14.93
2023-02-06T10:27:57.788Z,14.27
2023-02-06T10:30:54.270Z,13.53
2023-02-06T10:33:30.492Z,14.70
2023-02-06T10:36:20.106Z,14.07
2023-02-06T10:38:56.547Z,14.90
2023-02-06T10:41:32.823Z,17.53
2023-02-06T10:44:21.690Z,15.93
2023-02-06T10:46:55.823Z,14.57
2023-02-06T10:49:41.454Z,15.03
2023-02-06T10:52:27.541Z,14.80
2023-02-06T10:55:01.492Z,15.07
2023-02-06T10:57:32.716Z,13.13
2023-02-06T11:00:04.685Z,13.53
2023-02-06T11:03:06.144Z,14.70
2023-02-06T11:05:30.282Z,14.47
2023-02-06T11:08:16.097Z,14.10
2023-02-06T11:10:48.599Z,13.93
2023-02-06T11:13:34.310Z,12.27
2023-02-06T11:16:08.566Z,13.07
2023-02-06T11:18:42.388Z,13.23
2023-02-06T11:21:15.520Z,12.80
2023-02-06T11:23:47.377Z,13.63
2023-02-06T11:26:21.067Z,12.97
2023-02-06T11:28:57.150Z,13.57
2023-02-06T11:31:45.730Z,15.00
2023-02-06T11:34:22.333Z,12.67
2023-02-06T11:36:57.533Z,12.90
2023-02-06T11:39:39.599Z,13.53
2023-02-06T11:42:25.549Z,13.83
2023-02-06T11:44:56.244Z,14.50
2023-02-06T11:47:33.094Z,14.83
2023-02-06T11:50:18.635Z,15.87
2023-02-06T11:52:50.117Z,12.97
2023-02-06T11:55:27.485Z,11.83
2023-02-06T11:58:16.227Z,12.20
2023-02-06T12:00:56.030Z,14.17
2023-02-06T12:03:32.576Z,13.17
2023-02-06T12:06:25.525Z,14.03
2023-02-06T12:08:59.364Z,14.23
2023-02-06T12:11:36.149Z,14.17
2023-02-06T12:14:09.775Z,14.17
2023-02-06T12:16:46.357Z,14.30
2023-02-06T12:19:23.464Z,15.43
2023-02-06T12:22:00.367Z,14.30
2023-02-06T12:24:43.147Z,15.30
2023-02-06T12:27:25.901Z,16.10
2023-02-06T12:29:59.547Z,16.00
2023-02-06T12:32:42.281Z,14.87
2023-02-06T12:35:22.958Z,15.27
2023-02-06T12:37:56.469Z,14.53
2023-02-06T12:40:45.055Z,15.70
2023-02-06T12:43:18.588Z,16.47
2023-02-06T12:46:04.758Z,16.43
2023-02-06T12:48:56.842Z,17.10
2023-02-06T12:51:36.367Z,17.10
2023-02-06T12:54:09.898Z,17.27
2023-02-06T12:56:46.607Z,16.40
2023-02-06T12:59:32.299Z,16.47
2023-02-06T13:02:19.668Z,17.07
2023-02-06T13:04:54.337Z,16.10
2023-02-06T13:07:28.239Z,17.07
2023-02-06T13:10:04.830Z,16.57
2023-02-06T13:12:36.913Z,16.47
2023-02-06T13:15:10.591Z,15.47
2023-02-06T13:17:43.227Z,15.93
2023-02-06T13:20:22.352Z,16.20
2023-02-06T13:22:55.962Z,17.47
2023-02-06T13:25:32.544Z,17.17
2023-02-06T13:28:26.155Z,16.27
2023-02-06T13:31:05.062Z,15.47
2023-02-06T13:33:52.274Z,14.13
2023-02-06T13:36:47.775Z,15.83
2023-02-06T13:39:27.414Z,18.40
2023-02-06T13:42:01.028Z,14.63
2023-02-06T13:44:34.101Z,15.57
2023-02-06T13:47:10.904Z,17.63
2023-02-06T13:49:56.553Z,17.13
2023-02-06T13:52:32.830Z,14.90
2023-02-06T13:55:09.049Z,15.93
2023-02-06T13:58:02.538Z,14.80
2023-02-06T14:00:37.252Z,16.00
2023-02-06T14:03:29.036Z,17.13
2023-02-06T14:06:02.544Z,14.83
2023-02-06T14:08:36.094Z,14.50
2023-02-06T14:11:36.231Z,14.50
2023-02-06T14:14:32.648Z,16.40
2023-02-06T14:17:29.768Z,17.00
2023-02-06T14:20:06.238Z,14.63
2023-02-06T14:22:51.651Z,15.33
2023-02-06T14:25:41.528Z,19.13
2023-02-06T14:28:35.970Z,14.57
2023-02-06T14:31:17.707Z,14.50
2023-02-06T14:33:57.105Z,14.77
2023-02-06T14:36:30.768Z,13.93
2023-02-06T14:39:29.451Z,13.57
2023-02-06T14:42:00.461Z,14.00
2023-02-06T14:44:32.254Z,14.13
2023-02-06T14:47:05.800Z,13.77
2023-02-06T14:49:38.578Z,13.00
2023-02-06T14:52:12.073Z,12.60
2023-02-06T14:54:44.254Z,15.37
2023-02-06T14:57:29.382Z,12.50
2023-02-06T15:00:09.267Z,13.27
2023-02-06T15:02:41.538Z,14.63
2023-02-06T15:05:31.807Z,13.13
2023-02-06T15:08:04.520Z,13.80
2023-02-06T15:10:37.807Z,14.23
2023-02-06T15:13:11.611Z,12.93
2023-02-06T15:15:52.988Z,13.47
2023-02-06T15:18:27.211Z,13.40
2023-02-06T15:21:01.004Z,13.80
2023-02-06T15:23:48.044Z,12.43
2023-02-06T15:26:55.215Z,11.83
2023-02-06T15:29:27.599Z,11.97
2023-02-06T15:32:02.405Z,10.97
2023-02-06T15:34:34.832Z,12.23
2023-02-06T15:37:09.163Z,10.37
2023-02-06T15:39:40.511Z,11.03
2023-02-06T15:42:11.558Z,10.60
2023-02-06T15:44:42.995Z,12.30
2023-02-06T15:47:16.638Z,12.03
2023-02-06T15:49:50.932Z,12.93
2023-02-06T15:52:36.908Z,13.20
2023-02-06T15:55:07.962Z,13.17
2023-02-06T15:57:44.592Z,13.57
2023-02-06T16:00:25.642Z,13.40
2023-02-06T16:02:59.238Z,13.80
2023-02-06T16:05:34.914Z,14.83
2023-02-06T16:08:08.488Z,13.90
2023-02-06T16:10:40.661Z,15.97
2023-02-06T16:13:17.710Z,15.37
2023-02-06T16:16:08.462Z,15.53
2023-02-06T16:18:41.111Z,14.97
2023-02-06T16:21:14.969Z,17.07
2023-02-06T16:23:51.560Z,16.53
2023-02-06T16:26:24.891Z,15.10
2023-02-06T16:29:13.199Z,14.87
2023-02-06T16:31:45.522Z,15.23
2023-02-06T16:34:32.160Z,14.17
2023-02-06T16:37:04.322Z,14.07
2023-02-06T16:39:35.214Z,14.10
2023-02-06T16:42:06.405Z,13.27
2023-02-06T16:44:44.757Z,13.87
2023-02-06T16:47:13.998Z,13.73
2023-02-06T16:49:46.723Z,13.77
2023-02-06T16:52:20.497Z,13.07
2023-02-06T16:54:51.850Z,12.57
2023-02-06T16:57:25.382Z,14.00
2023-02-06T16:59:56.925Z,13.87
2023-02-06T17:02:29.317Z,13.80
2023-02-06T17:05:01.528Z,14.90
2023-02-06T17:07:35.032Z,14.40
2023-02-06T17:10:09.958Z,15.63
2023-02-06T17:12:42.791Z,15.20
2023-02-06T17:15:18.612Z,15.10
2023-02-06T17:17:49.389Z,15.93
2023-02-06T17:20:31.983Z,16.47
2023-02-06T17:23:02.966Z,18.93
2023-02-06T17:25:33.874Z,16.33
2023-02-06T17:28:06.871Z,15.03
2023-02-06T17:30:39.419Z,15.37
2023-02-06T17:33:11.523Z,15.03
2023-02-06T17:35:42.202Z,15.90
2023-02-06T17:38:14.063Z,16.57
2023-02-06T17:40:45.665Z,16.20
2023-02-06T17:43:16.491Z,15.97
2023-02-06T17:45:47.492Z,17.27
2023-02-06T17:48:18.551Z,15.40
2023-02-06T17:50:49.271Z,18.97
2023-02-06T17:53:20.435Z,16.83
2023-02-06T17:55:54.134Z,16.60
2023-02-06T17:58:26.390Z,16.17
2023-02-06T18:00:59.868Z,16.27
2023-02-06T18:03:30.676Z,17.53
2023-02-06T18:06:02.233Z,16.43
2023-02-06T18:08:32.760Z,19.37
2023-02-06T18:11:07.169Z,21.20
2023-02-06T18:13:40.838Z,20.90
2023-02-06T18:16:17.330Z,22.30
2023-02-06T18:18:50.044Z,22.20
2023-02-06T18:21:21.823Z,18.63
2023-02-06T18:23:54.476Z,18.07
2023-02-06T18:26:25.249Z,17.70
2023-02-06T18:28:55.964Z,18.67
2023-02-06T18:31:33.439Z,20.77
2023-02-06T18:34:08.066Z,22.07
2023-02-06T18:36:42.061Z,20.87
2023-02-06T18:39:13.107Z,19.60
2023-02-06T18:42:05.837Z,19.57
2023-02-06T18:44:38.080Z,20.30
2023-02-06T18:47:11.263Z,19.67
2023-02-06T18:49:44.702Z,18.93
2023-02-06T18:52:16.630Z,18.37
2023-02-06T18:54:48.763Z,18.03
2023-02-06T18:57:20.909Z,19.37
2023-02-06T18:59:53.402Z,18.30
2023-02-06T19:02:24.175Z,19.03
2023-02-06T19:04:57.998Z,19.03
2023-02-06T19:07:30.624Z,22.37
2023-02-06T19:10:03.130Z,20.73
2023-02-06T19:12:34.256Z,19.47
2023-02-06T19:15:06.449Z,19.80
2023-02-06T19:17:39.080Z,19.33
2023-02-06T19:20:18.795Z,20.03
2023-02-06T19:22:48.033Z,18.27
2023-02-06T19:25:19.151Z,18.73
2023-02-06T19:27:49.776Z,20.27
2023-02-06T19:30:20.602Z,20.20
2023-02-06T19:32:51.477Z,18.93
2023-02-06T19:35:23.159Z,19.83
2023-02-06T19:37:53.805Z,20.53
2023-02-06T19:40:25.680Z,20.93
2023-02-06T19:43:03.271Z,20.80
2023-02-06T19:45:38.547Z,21.67
2023-02-06T19:48:10.748Z,20.60
2023-02-06T19:50:42.470Z,20.93
2023-02-06T19:53:20.852Z,22.57
2023-02-06T19:55:54.655Z,22.83
2023-02-06T19:58:26.853Z,23.07
2023-02-06T20:00:59.283Z,23.23
2023-02-06T20:03:29.668Z,22.67
2023-02-06T20:06:04.048Z,20.70
2023-02-06T20:08:34.739Z,23.00
2023-02-06T20:11:07.763Z,21.30
2023-02-06T20:13:39.932Z,20.63
2023-02-06T20:16:19.351Z,21.77
2023-02-06T20:18:52.201Z,22.60
2023-02-06T20:21:29.376Z,21.93
2023-02-06T20:24:03.143Z,22.47
2023-02-06T20:26:36.928Z,22.47
2023-02-06T20:29:08.930Z,23.40
2023-02-06T20:31:39.570Z,23.67
2023-02-06T20:34:10.131Z,22.13
2023-02-06T20:36:41.904Z,22.40
2023-02-06T20:39:13.974Z,21.97
2023-02-06T20:41:45.601Z,22.37
2023-02-06T20:44:20.430Z,23.37
2023-02-06T20:46:51.668Z,24.97
2023-02-06T20:49:26.390Z,23.53
2023-02-06T20:51:57.631Z,29.33
2023-02-06T20:54:30.894Z,23.87
2023-02-06T20:57:02.827Z,23.73
2023-02-06T20:59:33.743Z,24.33
2023-02-06T21:02:04.499Z,24.50
2023-02-06T21:04:37.093Z,23.50
2023-02-06T21:07:09.833Z,25.03
2023-02-06T21:09:40.718Z,26.17
2023-02-06T21:12:11.154Z,23.83
2023-02-06T21:14:41.849Z,25.13
2023-02-06T21:17:12.276Z,23.60
2023-02-06T21:19:42.969Z,23.13
2023-02-06T21:22:14.396Z,24.20
2023-02-06T21:24:45.097Z,24.23
2023-02-06T21:27:17.241Z,25.10
2023-02-06T21:29:49.278Z,24.10
2023-02-06T21:32:19.917Z,24.70
2023-02-06T21:34:50.545Z,25.90
2023-02-06T21:37:22.594Z,24.73
2023-02-06T21:39:53.121Z,24.40
2023-02-06T21:42:25.283Z,24.23
2023-02-06T21:44:56.113Z,26.83
2023-02-06T21:47:27.780Z,24.80
2023-02-06T21:49:59.465Z,24.40
2023-02-06T21:52:32.296Z,25.13
2023-02-06T21:55:02.799Z,25.07
2023-02-06T21:57:33.424Z,24.83
2023-02-06T22:00:05.628Z,25.07
2023-02-06T22:02:36.098Z,25.17
2023-02-06T22:05:10.194Z,24.63
2023-02-06T22:07:41.635Z,23.33
2023-02-06T22:10:15.775Z,23.40
2023-02-06T22:12:52.345Z,23.50
2023-02-06T22:15:24.510Z,24.17
2023-02-06T22:17:55.125Z,24.00
2023-02-06T22:20:26.039Z,30.90
2023-02-06T22:22:57.565Z,24.57
2023-02-06T22:25:28.579Z,27.93
2023-02-06T22:27:59.102Z,28.37
2023-02-06T22:30:29.658Z,28.17
2023-02-06T22:33:00.884Z,27.63
2023-02-06T22:35:31.372Z,25.57
2023-02-06T22:38:10.808Z,25.07
2023-02-06T22:40:41.388Z,23.57
2023-02-06T22:43:11.947Z,24.50
2023-02-06T22:45:42.396Z,22.37
2023-02-06T22:48:13.031Z,22.93
2023-02-06T22:50:45.075Z,23.10
2023-02-06T22:53:31.974Z,23.20
2023-02-06T22:56:26.268Z,22.57
2023-02-06T22:59:10.167Z,22.43
2023-02-06T23:01:44.993Z,23.93
2023-02-06T23:04:18.716Z,24.77
2023-02-06T23:06:49.862Z,22.30
2023-02-06T23:09:25.776Z,22.70
2023-02-06T23:11:58.360Z,24.03
2023-02-06T23:14:31.077Z,23.87
2023-02-06T23:17:03.220Z,23.30
2023-02-06T23:19:33.909Z,22.60
2023-02-06T23:22:04.565Z,22.83
2023-02-06T23:24:35.320Z,22.67
2023-02-06T23:27:06.004Z,22.57
2023-02-06T23:29:36.466Z,22.83
2023-02-06T23:32:07.378Z,23.80
2023-02-06T23:34:39.812Z,20.33
2023-02-06T23:37:10.075Z,20.93
2023-02-06T23:39:40.669Z,20.33
2023-02-06T23:42:11.166Z,19.40
2023-02-06T23:44:44.744Z,18.97
2023-02-06T23:47:15.232Z,18.57
2023-02-06T23:49:45.929Z,19.13
2023-02-06T23:52:17.962Z,18.80
2023-02-06T23:54:48.370Z,19.40
2023-02-06T23:57:18.827Z,19.03
2023-02-06T23:59:49.567Z,20.07
